createdAt,value
2024-05-09T00:01:07.289Z,28.03
2024-05-09T00:05:11.533Z,30.90
2024-05-09T00:09:13.405Z,30.13
2024-05-09T00:13:17.358Z,32.60
2024-05-09T00:17:19.081Z,32.70
2024-05-09T00:21:21.424Z,29.93
2024-05-09T00:25:22.996Z,29.97
2024-05-09T00:29:28.056Z,33.90
2024-05-09T00:33:29.904Z,28.17
2024-05-09T00:37:31.800Z,30.80
2024-05-09T00:41:33.557Z,30.80
2024-05-09T00:45:35.836Z,30.93
2024-05-09T00:49:50.366Z,32.60
2024-05-09T00:53:52.373Z,31.57
2024-05-09T00:57:55.096Z,33.97
2024-05-09T01:01:59.208Z,30.90
2024-05-09T01:06:04.210Z,31.37
2024-05-09T01:10:11.489Z,33.57
2024-05-09T01:14:15.789Z,31.50
2024-05-09T01:18:17.799Z,33.00
2024-05-09T01:22:19.705Z,33.77
2024-05-09T01:26:21.614Z,33.57
2024-05-09T01:30:31.304Z,35.17
2024-05-09T01:34:53.256Z,35.87
2024-05-09T01:38:57.861Z,36.50
2024-05-09T01:42:59.686Z,36.10
2024-05-09T01:47:01.305Z,37.23
2024-05-09T01:51:03.094Z,37.40
2024-05-09T01:55:09.703Z,35.57
2024-05-09T01:59:25.818Z,33.50
2024-05-09T02:03:27.981Z,42.10
2024-05-09T02:07:29.816Z,37.10
2024-05-09T02:11:40.318Z,40.17
2024-05-09T02:15:42.313Z,38.90
2024-05-09T02:19:49.393Z,37.73
2024-05-09T02:24:08.959Z,36.70
2024-05-09T02:28:10.738Z,42.77
2024-05-09T02:32:12.609Z,39.40
2024-05-09T02:36:17.210Z,38.77
2024-05-09T02:40:25.618Z,38.67
2024-05-09T02:44:35.036Z,42.90
2024-05-09T02:48:36.890Z,37.83
2024-05-09T02:52:38.537Z,41.40
2024-05-09T02:56:40.102Z,44.70
2024-05-09T03:00:42.960Z,39.10
2024-05-09T03:04:45.169Z,39.47
2024-05-09T03:08:48.087Z,41.43
2024-05-09T03:12:49.665Z,38.90
2024-05-09T03:16:53.816Z,42.70
2024-05-09T03:20:55.471Z,39.03
2024-05-09T03:24:57.151Z,43.70
2024-05-09T03:28:59.172Z,44.37
2024-05-09T03:33:01.227Z,46.07
2024-05-09T03:37:03.204Z,42.60
2024-05-09T03:41:05.058Z,42.67
2024-05-09T03:45:06.625Z,44.57
2024-05-09T03:49:08.374Z,45.33
2024-05-09T03:53:11.629Z,49.83
2024-05-09T03:57:13.266Z,49.03
2024-05-09T04:01:14.950Z,45.57
2024-05-09T04:05:16.793Z,50.90
2024-05-09T04:09:18.413Z,48.70
2024-05-09T04:13:19.975Z,51.53
2024-05-09T04:17:21.582Z,47.00
2024-05-09T04:21:23.815Z,44.93
2024-05-09T04:25:25.341Z,48.67
2024-05-09T04:29:27.045Z,48.70
2024-05-09T04:33:29.755Z,43.03
2024-05-09T04:37:32.467Z,47.07
2024-05-09T04:41:34.066Z,49.00
2024-05-09T04:45:36.020Z,47.13
2024-05-09T04:49:37.770Z,46.27
2024-05-09T04:53:39.990Z,43.73
2024-05-09T04:57:41.766Z,45.40
2024-05-09T05:01:43.534Z,44.17
2024-05-09T05:05:46.145Z,42.83
2024-05-09T05:09:48.432Z,43.17
2024-05-09T05:13:50.197Z,36.00
2024-05-09T05:18:05.758Z,30.60
2024-05-09T05:22:07.572Z,28.73
2024-05-09T05:26:09.390Z,30.53
2024-05-09T05:30:17.611Z,28.83
2024-05-09T05:34:22.867Z,30.57
2024-05-09T05:38:27.434Z,24.53
2024-05-09T05:42:30.103Z,22.93
2024-05-09T05:46:31.959Z,21.37
2024-05-09T05:50:36.636Z,21.77
2024-05-09T05:54:40.188Z,21.33
2024-05-09T05:58:43.197Z,20.13
2024-05-09T06:02:45.048Z,20.52
2024-05-09T06:06:46.747Z,21.40
2024-05-09T06:10:48.523Z,20.38
2024-05-09T06:14:50.244Z,20.60
2024-05-09T06:18:52.219Z,20.48
2024-05-09T06:22:53.944Z,21.15
2024-05-09T06:26:55.669Z,21.73
2024-05-09T06:30:57.284Z,20.40
2024-05-09T06:34:58.914Z,24.08
2024-05-09T06:39:00.555Z,20.50
2024-05-09T06:43:04.139Z,21.00
2024-05-09T06:47:05.777Z,21.50
2024-05-09T06:51:07.456Z,22.83
2024-05-09T06:55:09.135Z,25.05
2024-05-09T06:59:10.854Z,23.40
2024-05-09T07:03:16.869Z,23.52
2024-05-09T07:07:20.076Z,25.00
2024-05-09T07:11:21.774Z,25.30
2024-05-09T07:15:23.495Z,25.90
2024-05-09T07:19:25.195Z,26.85
2024-05-09T07:23:28.282Z,28.08
2024-05-09T07:27:30.045Z,27.98
2024-05-09T07:31:34.919Z,27.48
2024-05-09T07:39:54.823Z,26.85
2024-05-09T07:43:56.532Z,28.58
2024-05-09T07:49:44.348Z,27.20
2024-05-09T07:53:30.378Z,28.58
2024-05-09T07:56:46.840Z,26.15
2024-05-09T08:00:48.654Z,26.45
2024-05-09T08:04:50.360Z,25.88
2024-05-09T08:08:52.227Z,27.08
2024-05-09T08:12:54.254Z,27.08
2024-05-09T08:16:55.974Z,28.80
2024-05-09T08:20:58.274Z,27.92
2024-05-09T08:25:00.025Z,28.05
2024-05-09T08:29:01.761Z,27.13
2024-05-09T08:33:04.730Z,27.00
2024-05-09T08:37:13.122Z,25.13
2024-05-09T08:41:21.303Z,26.77
2024-05-09T08:45:23.275Z,24.75
2024-05-09T08:49:26.405Z,27.83
2024-05-09T08:53:28.170Z,26.80
2024-05-09T08:57:35.812Z,25.83
2024-05-09T09:01:41.611Z,25.05
2024-05-09T09:05:54.278Z,24.73
2024-05-09T09:09:56.432Z,21.38
2024-05-09T09:13:58.154Z,20.48
2024-05-09T09:18:00.873Z,21.23
2024-05-09T09:22:03.013Z,20.17
2024-05-09T09:26:05.114Z,21.27
2024-05-09T09:30:15.507Z,17.48
2024-05-09T09:34:27.978Z,14.88
2024-05-09T09:38:31.598Z,14.55
2024-05-09T09:42:35.371Z,13.63
2024-05-09T09:46:38.422Z,13.77
2024-05-09T09:50:41.611Z,13.07
2024-05-09T09:54:45.258Z,11.82
2024-05-09T09:58:48.360Z,10.60
2024-05-09T10:02:50.018Z,7.57
2024-05-09T10:06:59.546Z,6.45
2024-05-09T10:11:04.453Z,5.63
2024-05-09T10:15:09.078Z,5.55
2024-05-09T10:19:30.998Z,5.75
2024-05-09T10:23:34.540Z,4.30
2024-05-09T10:27:36.420Z,4.40
2024-05-09T10:31:41.602Z,5.13
2024-05-09T10:35:51.740Z,5.43
2024-05-09T10:39:57.105Z,7.40
2024-05-09T10:43:58.778Z,6.35
2024-05-09T10:48:00.803Z,5.55
2024-05-09T10:52:03.971Z,5.70
2024-05-09T10:56:05.972Z,5.80
2024-05-09T11:00:15.603Z,6.93
2024-05-09T11:04:28.297Z,7.20
2024-05-09T11:08:32.129Z,7.00
2024-05-09T11:12:34.068Z,8.15
2024-05-09T11:16:41.362Z,7.78
2024-05-09T11:20:43.484Z,8.25
2024-05-09T11:24:45.456Z,7.32
2024-05-09T11:28:47.586Z,7.68
2024-05-09T11:32:51.820Z,8.10
2024-05-09T11:36:56.839Z,9.45
2024-05-09T11:40:58.737Z,10.15
2024-05-09T11:45:00.480Z,9.32
2024-05-09T11:49:02.539Z,8.48
2024-05-09T11:53:04.628Z,9.32
2024-05-09T11:57:06.414Z,9.75
2024-05-09T12:01:08.242Z,8.02
2024-05-09T12:05:10.234Z,7.82
2024-05-09T12:09:11.899Z,7.53
2024-05-09T12:13:13.749Z,6.90
2024-05-09T12:17:15.560Z,7.15
2024-05-09T12:21:17.512Z,8.13
2024-05-09T12:25:19.255Z,7.50
2024-05-09T12:29:21.207Z,7.78
2024-05-09T12:33:22.873Z,7.10
2024-05-09T12:37:24.797Z,6.88
2024-05-09T12:41:26.363Z,7.68
2024-05-09T12:45:28.212Z,7.22
2024-05-09T12:49:30.175Z,8.25
2024-05-09T12:53:31.902Z,8.75
2024-05-09T12:57:33.830Z,8.57
2024-05-09T13:01:35.642Z,7.90
2024-05-09T13:05:37.416Z,7.07
2024-05-09T13:09:39.660Z,7.55
2024-05-09T13:13:41.376Z,7.40
2024-05-09T13:17:43.282Z,7.45
2024-05-09T13:21:51.793Z,8.40
2024-05-09T13:25:53.538Z,7.30
2024-05-09T13:29:57.329Z,9.70
2024-05-09T13:34:01.113Z,10.27
2024-05-09T13:38:03.451Z,10.20
2024-05-09T13:42:06.066Z,7.97
2024-05-09T13:46:09.293Z,9.30
2024-05-09T13:50:16.936Z,9.57
2024-05-09T13:54:25.684Z,10.95
2024-05-09T13:58:27.372Z,9.95
2024-05-09T14:02:30.909Z,9.15
2024-05-09T14:06:32.720Z,9.15
2024-05-09T14:10:35.607Z,8.65
2024-05-09T14:14:37.277Z,9.65
2024-05-09T14:18:41.302Z,9.45
2024-05-09T14:22:42.950Z,10.70
2024-05-09T14:26:44.659Z,10.45
2024-05-09T14:30:46.363Z,11.25
2024-05-09T14:34:48.088Z,9.80
2024-05-09T14:38:49.794Z,10.40
2024-05-09T14:42:51.563Z,9.32
2024-05-09T14:46:53.301Z,10.00
2024-05-09T14:50:55.068Z,9.90
2024-05-09T14:55:00.345Z,11.77
2024-05-09T14:59:03.325Z,8.75
2024-05-09T15:03:05.538Z,9.93
2024-05-09T15:07:08.349Z,10.27
2024-05-09T15:11:11.958Z,8.63
2024-05-09T15:15:13.697Z,8.75
2024-05-09T15:19:15.362Z,9.05
2024-05-09T15:23:17.325Z,9.82
2024-05-09T15:27:19.145Z,8.85
2024-05-09T15:31:20.884Z,9.88
2024-05-09T15:35:38.255Z,10.32
2024-05-09T15:39:41.776Z,9.45
2024-05-09T15:43:43.417Z,9.98
2024-05-09T15:47:45.382Z,9.73
2024-05-09T15:51:48.602Z,12.40
2024-05-09T15:55:50.354Z,12.05
2024-05-09T15:59:52.192Z,11.52
2024-05-09T16:03:54.081Z,12.30
2024-05-09T16:07:56.047Z,11.52
2024-05-09T16:11:57.696Z,11.48
2024-05-09T16:16:00.285Z,13.20
2024-05-09T16:20:03.879Z,10.93
2024-05-09T16:24:08.977Z,9.55
2024-05-09T16:28:16.199Z,10.48
2024-05-09T16:32:22.607Z,8.65
2024-05-09T16:36:26.617Z,8.10
2024-05-09T16:40:36.316Z,9.50
2024-05-09T16:44:44.372Z,9.98
2024-05-09T16:48:50.250Z,10.45
2024-05-09T16:52:52.122Z,11.15
2024-05-09T16:56:53.864Z,10.38
2024-05-09T17:00:55.716Z,11.20
2024-05-09T17:04:57.382Z,14.32
2024-05-09T17:09:05.272Z,15.55
2024-05-09T17:13:10.455Z,17.23
2024-05-09T17:17:12.476Z,17.42
2024-05-09T17:21:15.726Z,18.10
2024-05-09T17:25:17.554Z,19.35
2024-05-09T17:29:21.768Z,16.95
2024-05-09T17:33:23.475Z,16.90
2024-05-09T17:37:28.021Z,17.65
2024-05-09T17:41:29.642Z,16.20
2024-05-09T17:45:31.389Z,16.95
2024-05-09T17:49:33.549Z,16.75
2024-05-09T17:53:35.463Z,16.23
2024-05-09T17:57:37.201Z,15.05
2024-05-09T18:01:38.970Z,16.05
2024-05-09T18:05:41.809Z,15.88
2024-05-09T18:09:44.672Z,14.95
2024-05-09T18:13:50.395Z,15.25
2024-05-09T18:17:52.386Z,13.38
2024-05-09T18:21:54.479Z,14.40
2024-05-09T18:25:57.223Z,13.77
2024-05-09T18:29:58.883Z,14.60
2024-05-09T18:34:00.777Z,12.45
2024-05-09T18:38:07.552Z,13.05
2024-05-09T18:42:12.971Z,11.95
2024-05-09T18:46:14.619Z,13.20
2024-05-09T18:50:24.684Z,14.05
2024-05-09T18:54:33.985Z,12.75
2024-05-09T18:58:35.763Z,12.40
2024-05-09T19:02:37.761Z,12.30
2024-05-09T19:06:41.044Z,11.40
2024-05-09T19:11:11.877Z,12.85
2024-05-09T19:15:13.661Z,11.45
2024-05-09T19:19:15.567Z,11.40
2024-05-09T19:23:17.393Z,11.48
2024-05-09T19:27:19.161Z,12.68
2024-05-09T19:31:21.229Z,14.15
2024-05-09T19:35:22.873Z,12.20
2024-05-09T19:39:25.088Z,11.45
2024-05-09T19:43:27.260Z,12.77
2024-05-09T19:47:29.244Z,10.93
2024-05-09T19:51:32.384Z,11.10
2024-05-09T19:55:35.090Z,12.10
2024-05-09T19:59:36.967Z,14.10
2024-05-09T20:03:46.391Z,10.30
2024-05-09T20:07:48.043Z,10.10
2024-05-09T20:11:49.727Z,10.25
2024-05-09T20:15:51.595Z,10.65
2024-05-09T20:19:53.455Z,9.10
2024-05-09T20:23:55.157Z,8.95
2024-05-09T20:27:56.988Z,10.18
2024-05-09T20:31:58.723Z,10.02
2024-05-09T20:36:02.200Z,10.45
2024-05-09T20:40:07.990Z,10.73
2024-05-09T20:44:11.832Z,9.00
2024-05-09T20:48:13.845Z,11.70
2024-05-09T20:52:15.809Z,10.18
2024-05-09T20:56:22.154Z,11.30
2024-05-09T21:00:30.337Z,13.63
2024-05-09T21:04:42.338Z,10.77
2024-05-09T21:08:44.034Z,10.95
2024-05-09T21:12:45.936Z,11.73
2024-05-09T21:16:47.668Z,11.70
2024-05-09T21:20:49.402Z,10.82
2024-05-09T21:24:51.129Z,10.32
2024-05-09T21:28:52.902Z,12.23
2024-05-09T21:32:54.776Z,10.60
2024-05-09T21:36:58.048Z,11.27
2024-05-09T21:40:59.752Z,11.48
2024-05-09T21:45:06.198Z,12.73
2024-05-09T21:49:08.158Z,11.77
2024-05-09T21:53:11.196Z,12.10
2024-05-09T21:57:14.559Z,13.35
2024-05-09T22:01:16.349Z,13.10
2024-05-09T22:05:18.187Z,13.52
2024-05-09T22:09:19.888Z,13.18
2024-05-09T22:13:21.837Z,13.27
2024-05-09T22:17:25.626Z,13.07
2024-05-09T22:21:27.505Z,12.32
2024-05-09T22:25:30.900Z,13.50
2024-05-09T22:29:33.400Z,13.95
2024-05-09T22:33:35.296Z,13.75
2024-05-09T22:37:37.432Z,14.65
2024-05-09T22:41:40.348Z,14.60
2024-05-09T22:45:42.146Z,14.13
2024-05-09T22:49:43.798Z,13.97
2024-05-09T22:53:45.446Z,14.93
2024-05-09T22:57:47.162Z,15.00
2024-05-09T23:01:48.844Z,15.48
2024-05-09T23:05:50.587Z,17.20
2024-05-09T23:09:52.294Z,17.47
2024-05-09T23:13:53.821Z,17.33
2024-05-09T23:17:55.803Z,16.75
2024-05-09T23:21:57.831Z,17.25
2024-05-09T23:25:59.651Z,17.73
2024-05-09T23:30:01.236Z,17.10
2024-05-09T23:34:02.889Z,17.13
2024-05-09T23:38:04.999Z,17.50
2024-05-09T23:42:06.802Z,16.27
2024-05-09T23:46:10.985Z,17.27
2024-05-09T23:50:17.058Z,17.10
2024-05-09T23:54:25.201Z,17.00
2024-05-09T23:58:30.029Z,17.37
